sensor_id;sensor_type;location;lat;lon;timestamp;P1;durP1;ratioP1;P2;durP2;ratioP2
48522;SDS011;34315;50.150;11.070;2024-01-30T00:02:36;17.33;;;6.28;;
48522;SDS011;34315;50.150;11.070;2024-01-30T00:07:37;11.65;;;6.40;;
48522;SDS011;34315;50.150;11.070;2024-01-30T00:12:38;12.45;;;5.40;;
48522;SDS011;34315;50.150;11.070;2024-01-30T00:17:39;12.13;;;6.00;;
48522;SDS011;34315;50.150;11.070;2024-01-30T00:22:40;12.48;;;6.28;;
48522;SDS011;34315;50.150;11.070;2024-01-30T00:27:41;13.32;;;5.82;;
48522;SDS011;34315;50.150;11.070;2024-01-30T00:32:42;11.23;;;5.82;;
48522;SDS011;34315;50.150;11.070;2024-01-30T00:37:43;12.65;;;5.85;;
48522;SDS011;34315;50.150;11.070;2024-01-30T00:42:44;11.70;;;5.68;;
48522;SDS011;34315;50.150;11.070;2024-01-30T00:47:46;9.02;;;5.15;;
48522;SDS011;34315;50.150;11.070;2024-01-30T00:52:48;9.13;;;5.38;;
48522;SDS011;34315;50.150;11.070;2024-01-30T00:57:49;11.10;;;5.57;;
48522;SDS011;34315;50.150;11.070;2024-01-30T01:02:50;11.77;;;5.75;;
48522;SDS011;34315;50.150;11.070;2024-01-30T01:07:52;10.93;;;5.80;;
48522;SDS011;34315;50.150;11.070;2024-01-30T01:12:53;11.68;;;5.95;;
48522;SDS011;34315;50.150;11.070;2024-01-30T01:17:54;10.75;;;5.15;;
48522;SDS011;34315;50.150;11.070;2024-01-30T01:22:55;10.77;;;5.70;;
48522;SDS011;34315;50.150;11.070;2024-01-30T01:27:56;10.63;;;5.22;;
48522;SDS011;34315;50.150;11.070;2024-01-30T01:32:57;11.05;;;5.57;;
48522;SDS011;34315;50.150;11.070;2024-01-30T01:38:01;10.15;;;5.05;;
48522;SDS011;34315;50.150;11.070;2024-01-30T01:43:03;12.55;;;5.43;;
48522;SDS011;34315;50.150;11.070;2024-01-30T01:48:05;9.68;;;5.10;;
48522;SDS011;34315;50.150;11.070;2024-01-30T01:53:09;10.02;;;5.38;;
48522;SDS011;34315;50.150;11.070;2024-01-30T01:58:10;10.93;;;5.40;;
48522;SDS011;34315;50.150;11.070;2024-01-30T02:03:13;10.95;;;5.00;;
48522;SDS011;34315;50.150;11.070;2024-01-30T02:08:14;11.85;;;5.38;;
48522;SDS011;34315;50.150;11.070;2024-01-30T02:13:16;10.60;;;4.82;;
48522;SDS011;34315;50.150;11.070;2024-01-30T02:18:18;10.93;;;5.72;;
48522;SDS011;34315;50.150;11.070;2024-01-30T02:23:20;9.23;;;4.70;;
48522;SDS011;34315;50.150;11.070;2024-01-30T02:28:21;12.18;;;4.60;;
48522;SDS011;34315;50.150;11.070;2024-01-30T02:33:22;10.70;;;5.22;;
48522;SDS011;34315;50.150;11.070;2024-01-30T02:38:23;9.88;;;5.07;;
48522;SDS011;34315;50.150;11.070;2024-01-30T02:43:27;11.43;;;4.78;;
48522;SDS011;34315;50.150;11.070;2024-01-30T02:48:28;10.43;;;5.30;;
48522;SDS011;34315;50.150;11.070;2024-01-30T02:53:29;10.18;;;5.03;;
48522;SDS011;34315;50.150;11.070;2024-01-30T02:58:30;9.50;;;4.65;;
48522;SDS011;34315;50.150;11.070;2024-01-30T03:03:31;9.93;;;4.78;;
48522;SDS011;34315;50.150;11.070;2024-01-30T03:08:32;9.43;;;4.28;;
48522;SDS011;34315;50.150;11.070;2024-01-30T03:13:35;10.88;;;4.95;;
48522;SDS011;34315;50.150;11.070;2024-01-30T03:18:36;9.60;;;4.45;;
48522;SDS011;34315;50.150;11.070;2024-01-30T03:23:37;8.00;;;4.43;;
48522;SDS011;34315;50.150;11.070;2024-01-30T03:28:38;9.85;;;4.28;;
48522;SDS011;34315;50.150;11.070;2024-01-30T03:33:39;8.52;;;4.00;;
48522;SDS011;34315;50.150;11.070;2024-01-30T03:38:40;7.40;;;3.70;;
48522;SDS011;34315;50.150;11.070;2024-01-30T03:43:41;8.32;;;4.10;;
48522;SDS011;34315;50.150;11.070;2024-01-30T03:48:42;12.57;;;4.07;;
48522;SDS011;34315;50.150;11.070;2024-01-30T03:53:44;7.03;;;3.38;;
48522;SDS011;34315;50.150;11.070;2024-01-30T03:58:46;8.13;;;3.90;;
48522;SDS011;34315;50.150;11.070;2024-01-30T04:03:47;6.53;;;3.78;;
48522;SDS011;34315;50.150;11.070;2024-01-30T04:08:49;7.55;;;3.67;;
48522;SDS011;34315;50.150;11.070;2024-01-30T04:13:50;9.18;;;4.03;;
48522;SDS011;34315;50.150;11.070;2024-01-30T04:18:57;7.00;;;3.53;;
48522;SDS011;34315;50.150;11.070;2024-01-30T04:23:59;7.93;;;3.58;;
48522;SDS011;34315;50.150;11.070;2024-01-30T04:29:00;8.77;;;3.92;;
48522;SDS011;34315;50.150;11.070;2024-01-30T04:34:01;7.07;;;3.80;;
48522;SDS011;34315;50.150;11.070;2024-01-30T04:39:02;8.07;;;3.78;;
48522;SDS011;34315;50.150;11.070;2024-01-30T04:44:04;7.82;;;4.10;;
48522;SDS011;34315;50.150;11.070;2024-01-30T04:49:05;7.60;;;3.95;;
48522;SDS011;34315;50.150;11.070;2024-01-30T04:54:08;9.95;;;3.58;;
48522;SDS011;34315;50.150;11.070;2024-01-30T04:59:09;7.45;;;3.95;;
48522;SDS011;34315;50.150;11.070;2024-01-30T05:04:10;8.20;;;3.40;;
48522;SDS011;34315;50.150;11.070;2024-01-30T05:09:12;7.72;;;3.67;;
48522;SDS011;34315;50.150;11.070;2024-01-30T05:14:13;7.30;;;3.38;;
48522;SDS011;34315;50.150;11.070;2024-01-30T05:19:15;8.07;;;3.83;;
48522;SDS011;34315;50.150;11.070;2024-01-30T05:24:17;9.60;;;4.25;;
48522;SDS011;34315;50.150;11.070;2024-01-30T05:29:19;8.30;;;4.30;;
48522;SDS011;34315;50.150;11.070;2024-01-30T05:34:20;13.52;;;4.97;;
48522;SDS011;34315;50.150;11.070;2024-01-30T05:39:21;10.38;;;5.68;;
48522;SDS011;34315;50.150;11.070;2024-01-30T05:44:22;10.30;;;4.97;;
48522;SDS011;34315;50.150;11.070;2024-01-30T05:49:23;11.07;;;5.50;;
48522;SDS011;34315;50.150;11.070;2024-01-30T05:54:24;10.38;;;5.15;;
48522;SDS011;34315;50.150;11.070;2024-01-30T05:59:25;12.70;;;5.40;;
48522;SDS011;34315;50.150;11.070;2024-01-30T06:04:26;12.07;;;5.10;;
48522;SDS011;34315;50.150;11.070;2024-01-30T06:09:27;11.77;;;5.15;;
48522;SDS011;34315;50.150;11.070;2024-01-30T06:14:29;9.02;;;5.03;;
48522;SDS011;34315;50.150;11.070;2024-01-30T06:19:31;12.38;;;6.72;;
48522;SDS011;34315;50.150;11.070;2024-01-30T06:24:32;13.82;;;6.80;;
48522;SDS011;34315;50.150;11.070;2024-01-30T06:29:34;11.88;;;5.80;;
48522;SDS011;34315;50.150;11.070;2024-01-30T06:34:36;13.65;;;6.72;;
48522;SDS011;34315;50.150;11.070;2024-01-30T06:39:37;11.32;;;6.20;;
48522;SDS011;34315;50.150;11.070;2024-01-30T06:44:38;14.80;;;6.38;;
48522;SDS011;34315;50.150;11.070;2024-01-30T06:49:39;13.20;;;7.00;;
48522;SDS011;34315;50.150;11.070;2024-01-30T06:54:42;15.10;;;7.82;;
48522;SDS011;34315;50.150;11.070;2024-01-30T06:59:43;15.85;;;8.48;;
48522;SDS011;34315;50.150;11.070;2024-01-30T07:04:44;18.02;;;9.43;;
48522;SDS011;34315;50.150;11.070;2024-01-30T07:09:45;18.55;;;8.95;;
48522;SDS011;34315;50.150;11.070;2024-01-30T07:14:48;18.13;;;9.32;;
48522;SDS011;34315;50.150;11.070;2024-01-30T07:19:49;21.10;;;10.02;;
48522;SDS011;34315;50.150;11.070;2024-01-30T07:24:50;13.20;;;8.00;;
48522;SDS011;34315;50.150;11.070;2024-01-30T07:29:52;18.52;;;7.20;;
48522;SDS011;34315;50.150;11.070;2024-01-30T07:34:53;18.50;;;8.88;;
48522;SDS011;34315;50.150;11.070;2024-01-30T07:39:54;21.67;;;9.73;;
48522;SDS011;34315;50.150;11.070;2024-01-30T07:44:55;19.65;;;9.35;;
48522;SDS011;34315;50.150;11.070;2024-01-30T07:49:56;17.92;;;8.90;;
48522;SDS011;34315;50.150;11.070;2024-01-30T07:54:58;19.50;;;9.52;;
48522;SDS011;34315;50.150;11.070;2024-01-30T07:59:59;18.85;;;8.35;;
48522;SDS011;34315;50.150;11.070;2024-01-30T08:05:00;16.42;;;8.98;;
48522;SDS011;34315;50.150;11.070;2024-01-30T08:10:01;15.40;;;7.97;;
48522;SDS011;34315;50.150;11.070;2024-01-30T08:15:03;15.77;;;7.22;;
48522;SDS011;34315;50.150;11.070;2024-01-30T08:20:05;14.98;;;8.10;;
48522;SDS011;34315;50.150;11.070;2024-01-30T08:25:06;16.90;;;7.45;;
48522;SDS011;34315;50.150;11.070;2024-01-30T08:30:08;16.88;;;8.60;;
48522;SDS011;34315;50.150;11.070;2024-01-30T08:35:10;16.70;;;8.45;;
48522;SDS011;34315;50.150;11.070;2024-01-30T08:40:14;17.40;;;9.17;;
48522;SDS011;34315;50.150;11.070;2024-01-30T08:45:15;18.02;;;9.70;;
48522;SDS011;34315;50.150;11.070;2024-01-30T08:50:16;18.23;;;9.30;;
48522;SDS011;34315;50.150;11.070;2024-01-30T08:55:17;18.17;;;9.02;;
48522;SDS011;34315;50.150;11.070;2024-01-30T09:00:19;15.40;;;8.45;;
48522;SDS011;34315;50.150;11.070;2024-01-30T09:05:20;15.90;;;8.70;;
48522;SDS011;34315;50.150;11.070;2024-01-30T09:10:21;17.08;;;8.95;;
48522;SDS011;34315;50.150;11.070;2024-01-30T09:15:22;18.15;;;9.00;;
48522;SDS011;34315;50.150;11.070;2024-01-30T09:20:23;22.02;;;9.80;;
48522;SDS011;34315;50.150;11.070;2024-01-30T09:25:24;22.05;;;9.98;;
48522;SDS011;34315;50.150;11.070;2024-01-30T09:30:25;18.27;;;9.73;;
48522;SDS011;34315;50.150;11.070;2024-01-30T09:35:26;18.67;;;9.05;;
48522;SDS011;34315;50.150;11.070;2024-01-30T09:40:28;17.77;;;9.45;;
48522;SDS011;34315;50.150;11.070;2024-01-30T09:45:29;17.35;;;9.30;;
48522;SDS011;34315;50.150;11.070;2024-01-30T09:50:30;18.55;;;9.23;;
48522;SDS011;34315;50.150;11.070;2024-01-30T09:55:32;18.98;;;9.65;;
48522;SDS011;34315;50.150;11.070;2024-01-30T10:00:33;23.77;;;11.07;;
48522;SDS011;34315;50.150;11.070;2024-01-30T10:05:35;24.70;;;12.05;;
48522;SDS011;34315;50.150;11.070;2024-01-30T10:10:38;25.73;;;11.75;;
48522;SDS011;34315;50.150;11.070;2024-01-30T10:15:39;22.00;;;11.63;;
48522;SDS011;34315;50.150;11.070;2024-01-30T10:20:41;25.23;;;12.02;;
48522;SDS011;34315;50.150;11.070;2024-01-30T10:25:42;22.38;;;12.35;;
48522;SDS011;34315;50.150;11.070;2024-01-30T10:30:43;24.27;;;12.50;;
48522;SDS011;34315;50.150;11.070;2024-01-30T10:35:44;25.80;;;13.95;;
48522;SDS011;34315;50.150;11.070;2024-01-30T10:40:46;23.52;;;12.68;;
48522;SDS011;34315;50.150;11.070;2024-01-30T10:45:50;24.83;;;12.10;;
48522;SDS011;34315;50.150;11.070;2024-01-30T10:50:54;22.70;;;11.73;;
48522;SDS011;34315;50.150;11.070;2024-01-30T10:55:56;19.92;;;11.30;;
48522;SDS011;34315;50.150;11.070;2024-01-30T11:00:58;20.15;;;12.07;;
48522;SDS011;34315;50.150;11.070;2024-01-30T11:06:00;24.02;;;11.70;;
48522;SDS011;34315;50.150;11.070;2024-01-30T11:11:01;19.88;;;11.00;;
48522;SDS011;34315;50.150;11.070;2024-01-30T11:16:04;23.23;;;11.38;;
48522;SDS011;34315;50.150;11.070;2024-01-30T11:21:05;19.85;;;10.75;;
48522;SDS011;34315;50.150;11.070;2024-01-30T11:26:06;20.38;;;11.45;;
48522;SDS011;34315;50.150;11.070;2024-01-30T11:31:08;19.88;;;11.77;;
48522;SDS011;34315;50.150;11.070;2024-01-30T11:36:10;20.13;;;11.38;;
48522;SDS011;34315;50.150;11.070;2024-01-30T11:41:14;21.38;;;11.27;;
48522;SDS011;34315;50.150;11.070;2024-01-30T11:46:16;19.77;;;11.27;;
48522;SDS011;34315;50.150;11.070;2024-01-30T11:51:18;25.98;;;11.73;;
48522;SDS011;34315;50.150;11.070;2024-01-30T11:56:20;23.38;;;11.93;;
48522;SDS011;34315;50.150;11.070;2024-01-30T12:01:21;22.00;;;10.50;;
48522;SDS011;34315;50.150;11.070;2024-01-30T12:06:22;17.35;;;10.25;;
48522;SDS011;34315;50.150;11.070;2024-01-30T12:11:24;19.02;;;10.95;;
48522;SDS011;34315;50.150;11.070;2024-01-30T12:16:25;18.77;;;9.95;;
48522;SDS011;34315;50.150;11.070;2024-01-30T12:21:26;19.35;;;10.68;;
48522;SDS011;34315;50.150;11.070;2024-01-30T12:26:27;20.55;;;10.13;;
48522;SDS011;34315;50.150;11.070;2024-01-30T12:31:28;20.33;;;9.98;;
48522;SDS011;34315;50.150;11.070;2024-01-30T12:36:30;17.45;;;10.27;;
48522;SDS011;34315;50.150;11.070;2024-01-30T12:41:31;18.63;;;10.18;;
48522;SDS011;34315;50.150;11.070;2024-01-30T12:46:34;17.40;;;10.18;;
48522;SDS011;34315;50.150;11.070;2024-01-30T12:51:35;19.08;;;10.80;;
48522;SDS011;34315;50.150;11.070;2024-01-30T12:56:36;19.15;;;11.20;;
48522;SDS011;34315;50.150;11.070;2024-01-30T13:01:37;21.42;;;11.80;;
48522;SDS011;34315;50.150;11.070;2024-01-30T13:06:38;20.38;;;11.57;;
48522;SDS011;34315;50.150;11.070;2024-01-30T13:11:39;18.92;;;11.45;;
48522;SDS011;34315;50.150;11.070;2024-01-30T13:16:40;19.73;;;9.80;;
48522;SDS011;34315;50.150;11.070;2024-01-30T13:21:41;19.20;;;10.82;;
48522;SDS011;34315;50.150;11.070;2024-01-30T13:26:43;20.58;;;11.75;;
48522;SDS011;34315;50.150;11.070;2024-01-30T13:31:44;19.90;;;11.10;;
48522;SDS011;34315;50.150;11.070;2024-01-30T13:36:46;22.77;;;11.20;;
48522;SDS011;34315;50.150;11.070;2024-01-30T13:41:49;20.55;;;10.68;;
48522;SDS011;34315;50.150;11.070;2024-01-30T13:46:50;19.02;;;11.38;;
48522;SDS011;34315;50.150;11.070;2024-01-30T13:51:52;20.35;;;10.63;;
48522;SDS011;34315;50.150;11.070;2024-01-30T13:56:53;17.67;;;10.27;;
48522;SDS011;34315;50.150;11.070;2024-01-30T14:01:54;19.83;;;10.75;;
48522;SDS011;34315;50.150;11.070;2024-01-30T14:06:55;22.40;;;11.88;;
48522;SDS011;34315;50.150;11.070;2024-01-30T14:11:56;28.17;;;12.35;;
48522;SDS011;34315;50.150;11.070;2024-01-30T14:16:57;17.80;;;10.27;;
48522;SDS011;34315;50.150;11.070;2024-01-30T14:21:58;17.52;;;10.57;;
48522;SDS011;34315;50.150;11.070;2024-01-30T14:26:59;18.77;;;10.60;;
48522;SDS011;34315;50.150;11.070;2024-01-30T14:32:01;20.85;;;11.75;;
48522;SDS011;34315;50.150;11.070;2024-01-30T14:37:02;21.55;;;11.55;;
48522;SDS011;34315;50.150;11.070;2024-01-30T14:42:03;19.20;;;10.90;;
48522;SDS011;34315;50.150;11.070;2024-01-30T14:47:05;19.83;;;11.35;;
48522;SDS011;34315;50.150;11.070;2024-01-30T14:52:06;20.48;;;10.90;;
48522;SDS011;34315;50.150;11.070;2024-01-30T14:57:07;22.75;;;11.20;;
48522;SDS011;34315;50.150;11.070;2024-01-30T15:02:09;21.25;;;10.32;;
48522;SDS011;34315;50.150;11.070;2024-01-30T15:07:10;20.85;;;11.07;;
48522;SDS011;34315;50.150;11.070;2024-01-30T15:12:11;22.15;;;11.57;;
48522;SDS011;34315;50.150;11.070;2024-01-30T15:17:12;27.48;;;12.45;;
48522;SDS011;34315;50.150;11.070;2024-01-30T15:22:13;21.00;;;10.60;;
48522;SDS011;34315;50.150;11.070;2024-01-30T15:27:14;17.92;;;10.05;;
48522;SDS011;34315;50.150;11.070;2024-01-30T15:32:16;20.55;;;11.70;;
48522;SDS011;34315;50.150;11.070;2024-01-30T15:37:17;18.55;;;11.00;;
48522;SDS011;34315;50.150;11.070;2024-01-30T15:42:18;22.77;;;12.85;;
48522;SDS011;34315;50.150;11.070;2024-01-30T15:47:20;23.10;;;13.10;;
48522;SDS011;34315;50.150;11.070;2024-01-30T15:52:21;23.30;;;12.75;;
48522;SDS011;34315;50.150;11.070;2024-01-30T15:57:22;26.30;;;13.82;;
48522;SDS011;34315;50.150;11.070;2024-01-30T16:02:23;26.83;;;13.85;;
48522;SDS011;34315;50.150;11.070;2024-01-30T16:07:25;25.27;;;14.02;;
48522;SDS011;34315;50.150;11.070;2024-01-30T16:12:26;29.90;;;14.07;;
48522;SDS011;34315;50.150;11.070;2024-01-30T16:17:27;26.42;;;14.55;;
48522;SDS011;34315;50.150;11.070;2024-01-30T16:22:28;27.58;;;14.02;;
48522;SDS011;34315;50.150;11.070;2024-01-30T16:27:29;32.63;;;15.27;;
48522;SDS011;34315;50.150;11.070;2024-01-30T16:32:30;26.35;;;14.02;;
48522;SDS011;34315;50.150;11.070;2024-01-30T16:37:32;26.48;;;14.00;;
48522;SDS011;34315;50.150;11.070;2024-01-30T16:42:33;23.40;;;12.27;;
48522;SDS011;34315;50.150;11.070;2024-01-30T16:47:34;24.67;;;12.23;;
48522;SDS011;34315;50.150;11.070;2024-01-30T16:52:35;25.58;;;14.07;;
48522;SDS011;34315;50.150;11.070;2024-01-30T16:57:36;25.08;;;14.23;;
48522;SDS011;34315;50.150;11.070;2024-01-30T17:02:38;24.77;;;13.95;;
48522;SDS011;34315;50.150;11.070;2024-01-30T17:07:39;28.08;;;15.93;;
48522;SDS011;34315;50.150;11.070;2024-01-30T17:12:40;29.55;;;15.95;;
48522;SDS011;34315;50.150;11.070;2024-01-30T17:17:41;28.73;;;14.23;;
48522;SDS011;34315;50.150;11.070;2024-01-30T17:22:42;25.70;;;14.60;;
48522;SDS011;34315;50.150;11.070;2024-01-30T17:27:43;33.28;;;18.50;;
48522;SDS011;34315;50.150;11.070;2024-01-30T17:32:45;30.77;;;15.23;;
48522;SDS011;34315;50.150;11.070;2024-01-30T17:37:46;29.92;;;15.48;;
48522;SDS011;34315;50.150;11.070;2024-01-30T17:42:47;28.95;;;15.30;;
48522;SDS011;34315;50.150;11.070;2024-01-30T17:47:49;27.85;;;14.75;;
48522;SDS011;34315;50.150;11.070;2024-01-30T17:52:50;30.60;;;14.98;;
48522;SDS011;34315;50.150;11.070;2024-01-30T17:57:53;25.35;;;14.38;;
48522;SDS011;34315;50.150;11.070;2024-01-30T18:02:54;27.30;;;15.10;;
48522;SDS011;34315;50.150;11.070;2024-01-30T18:07:57;29.15;;;15.45;;
48522;SDS011;34315;50.150;11.070;2024-01-30T18:12:58;30.58;;;16.00;;
48522;SDS011;34315;50.150;11.070;2024-01-30T18:17:59;37.55;;;18.95;;
48522;SDS011;34315;50.150;11.070;2024-01-30T18:23:00;37.00;;;17.20;;
48522;SDS011;34315;50.150;11.070;2024-01-30T18:28:01;45.15;;;20.65;;
48522;SDS011;34315;50.150;11.070;2024-01-30T18:33:03;44.13;;;20.88;;
48522;SDS011;34315;50.150;11.070;2024-01-30T18:38:05;32.60;;;17.52;;
48522;SDS011;34315;50.150;11.070;2024-01-30T18:43:06;37.53;;;17.42;;
48522;SDS011;34315;50.150;11.070;2024-01-30T18:48:07;29.00;;;15.75;;
48522;SDS011;34315;50.150;11.070;2024-01-30T18:53:08;33.53;;;16.88;;
48522;SDS011;34315;50.150;11.070;2024-01-30T18:58:09;31.00;;;14.88;;
48522;SDS011;34315;50.150;11.070;2024-01-30T19:03:10;32.92;;;16.67;;
48522;SDS011;34315;50.150;11.070;2024-01-30T19:08:11;45.85;;;20.85;;
48522;SDS011;34315;50.150;11.070;2024-01-30T19:13:13;33.38;;;17.60;;
48522;SDS011;34315;50.150;11.070;2024-01-30T19:18:15;28.90;;;15.48;;
48522;SDS011;34315;50.150;11.070;2024-01-30T19:23:17;35.08;;;18.02;;
48522;SDS011;34315;50.150;11.070;2024-01-30T19:28:18;30.63;;;15.95;;
48522;SDS011;34315;50.150;11.070;2024-01-30T19:33:19;35.88;;;17.77;;
48522;SDS011;34315;50.150;11.070;2024-01-30T19:38:20;32.25;;;18.25;;
48522;SDS011;34315;50.150;11.070;2024-01-30T19:43:21;37.33;;;18.42;;
48522;SDS011;34315;50.150;11.070;2024-01-30T19:48:22;34.95;;;19.23;;
48522;SDS011;34315;50.150;11.070;2024-01-30T19:53:24;32.53;;;17.13;;
48522;SDS011;34315;50.150;11.070;2024-01-30T19:58:25;33.22;;;16.77;;
48522;SDS011;34315;50.150;11.070;2024-01-30T20:03:26;36.40;;;15.77;;
48522;SDS011;34315;50.150;11.070;2024-01-30T20:08:27;28.70;;;16.23;;
48522;SDS011;34315;50.150;11.070;2024-01-30T20:13:29;32.13;;;16.88;;
48522;SDS011;34315;50.150;11.070;2024-01-30T20:18:31;32.15;;;16.38;;
48522;SDS011;34315;50.150;11.070;2024-01-30T20:23:32;27.02;;;13.85;;
48522;SDS011;34315;50.150;11.070;2024-01-30T20:28:33;27.60;;;16.33;;
48522;SDS011;34315;50.150;11.070;2024-01-30T20:33:34;29.38;;;15.77;;
48522;SDS011;34315;50.150;11.070;2024-01-30T20:38:37;26.35;;;15.70;;
48522;SDS011;34315;50.150;11.070;2024-01-30T20:43:38;31.33;;;14.90;;
48522;SDS011;34315;50.150;11.070;2024-01-30T20:48:45;26.77;;;15.20;;
48522;SDS011;34315;50.150;11.070;2024-01-30T20:53:46;31.08;;;17.05;;
48522;SDS011;34315;50.150;11.070;2024-01-30T20:58:47;32.03;;;17.13;;
48522;SDS011;34315;50.150;11.070;2024-01-30T21:03:48;36.20;;;17.90;;
48522;SDS011;34315;50.150;11.070;2024-01-30T21:08:49;31.35;;;17.10;;
48522;SDS011;34315;50.150;11.070;2024-01-30T21:13:50;34.03;;;17.65;;
48522;SDS011;34315;50.150;11.070;2024-01-30T21:18:51;31.63;;;17.17;;
48522;SDS011;34315;50.150;11.070;2024-01-30T21:23:52;27.42;;;14.18;;
48522;SDS011;34315;50.150;11.070;2024-01-30T21:28:53;27.50;;;15.60;;
48522;SDS011;34315;50.150;11.070;2024-01-30T21:33:54;24.42;;;15.45;;
48522;SDS011;34315;50.150;11.070;2024-01-30T21:38:56;34.65;;;17.60;;
48522;SDS011;34315;50.150;11.070;2024-01-30T21:43:57;33.90;;;17.08;;
48522;SDS011;34315;50.150;11.070;2024-01-30T21:48:58;28.60;;;17.70;;
48522;SDS011;34315;50.150;11.070;2024-01-30T21:53:59;37.28;;;17.42;;
48522;SDS011;34315;50.150;11.070;2024-01-30T21:59:00;35.97;;;20.02;;
48522;SDS011;34315;50.150;11.070;2024-01-30T22:04:01;34.08;;;18.67;;
48522;SDS011;34315;50.150;11.070;2024-01-30T22:09:03;34.50;;;19.77;;
48522;SDS011;34315;50.150;11.070;2024-01-30T22:14:05;33.88;;;18.63;;
48522;SDS011;34315;50.150;11.070;2024-01-30T22:19:06;33.20;;;18.20;;
48522;SDS011;34315;50.150;11.070;2024-01-30T22:24:10;31.60;;;17.85;;
48522;SDS011;34315;50.150;11.070;2024-01-30T22:29:11;31.55;;;16.10;;
48522;SDS011;34315;50.150;11.070;2024-01-30T22:34:12;30.75;;;15.98;;
48522;SDS011;34315;50.150;11.070;2024-01-30T22:39:13;28.88;;;15.55;;
48522;SDS011;34315;50.150;11.070;2024-01-30T22:44:14;29.50;;;16.20;;
48522;SDS011;34315;50.150;11.070;2024-01-30T22:49:16;25.60;;;14.57;;
48522;SDS011;34315;50.150;11.070;2024-01-30T22:54:17;35.03;;;17.52;;
48522;SDS011;34315;50.150;11.070;2024-01-30T22:59:18;28.10;;;14.90;;
48522;SDS011;34315;50.150;11.070;2024-01-30T23:04:20;27.17;;;13.73;;
48522;SDS011;34315;50.150;11.070;2024-01-30T23:09:21;27.08;;;13.68;;
48522;SDS011;34315;50.150;11.070;2024-01-30T23:14:22;27.30;;;15.23;;
48522;SDS011;34315;50.150;11.070;2024-01-30T23:19:24;26.63;;;14.52;;
48522;SDS011;34315;50.150;11.070;2024-01-30T23:24:25;26.02;;;13.45;;
48522;SDS011;34315;50.150;11.070;2024-01-30T23:29:26;23.45;;;13.77;;
48522;SDS011;34315;50.150;11.070;2024-01-30T23:34:27;24.65;;;13.70;;
48522;SDS011;34315;50.150;11.070;2024-01-30T23:39:28;27.08;;;14.32;;
48522;SDS011;34315;50.150;11.070;2024-01-30T23:44:30;22.83;;;13.52;;
48522;SDS011;34315;50.150;11.070;2024-01-30T23:49:31;27.20;;;13.98;;
48522;SDS011;34315;50.150;11.070;2024-01-30T23:54:32;30.67;;;15.85;;
48522;SDS011;34315;50.150;11.070;2024-01-30T23:59:33;27.45;;;15.73;;
